Time;durP1;ratioP1;P1;durP2;ratioP2;P2;SDS_P1;SDS_P2;PMS_P1;PMS_P2;Temp;Humidity;BMP_temperature;BMP_pressure;BME280_temperature;BME280_humidity;BME280_pressure;Samples;Min_cycle;Max_cycle;Signal;HPM_P1;HPM_P2
2021/05/23 00:01:38;;;;;;;0.20;0.10;;;15.10;99.90;;;;;;20591116;28;20226;-62
2021/05/23 00:11:41;;;;;;;1.70;0.53;;;14.90;99.90;;;;;;20611156;28;20231;-62
2021/05/23 00:21:46;;;;;;;0.30;0.20;;;14.80;99.90;;;;;;20624946;28;20555;-63
2021/05/23 00:31:49;;;;;;;0.63;0.60;;;14.80;99.90;;;;;;20621346;28;20298;-62
2021/05/23 00:41:53;;;;;;;0.20;0.10;;;14.60;99.90;;;;;;20623626;28;20550;-63
2021/05/23 00:51:56;;;;;;;1.03;0.50;;;14.60;99.90;;;;;;20621024;28;20235;-62
2021/05/23 01:02:48;;;;;;;0.30;0.30;;;14.60;99.90;;;;;;20622715;28;20683;-63
2021/05/23 01:13:52;;;;;;;0.70;0.50;;;14.60;99.90;;;;;;20562128;28;20220;-63
2021/05/23 01:24:00;;;;;;;0.93;0.40;;;14.60;99.90;;;;;;20538839;28;20204;-63
2021/05/23 01:34:05;;;;;;;1.27;0.77;;;14.70;99.90;;;;;;20537807;28;20697;-62
2021/05/23 01:44:09;;;;;;;0.57;0.40;;;14.80;99.90;;;;;;20537935;28;20825;-62
2021/05/23 01:54:13;;;;;;;0.20;0.10;;;15.00;99.90;;;;;;20535669;28;20310;-62
2021/05/23 02:04:16;;;;;;;0.43;0.27;;;15.10;99.90;;;;;;20520224;28;20233;-62
2021/05/23 02:25:02;;;;;;;0.33;0.23;;;14.80;99.90;;;;;;21947453;23;20235;-73
2021/05/23 02:35:07;;;;;;;0.20;0.10;;;14.70;99.90;;;;;;20541676;28;20302;-73
2021/05/23 02:45:13;;;;;;;0.20;0.17;;;14.60;99.90;;;;;;20634833;28;20290;-73
2021/05/23 02:55:17;;;;;;;0.40;0.40;;;14.70;99.90;;;;;;20600314;28;21106;-73
2021/05/23 03:05:23;;;;;;;0.33;0.33;;;14.60;99.90;;;;;;20607690;28;20210;-74
2021/05/23 03:15:27;;;;;;;0.37;0.37;;;14.30;99.90;;;;;;20611981;28;20798;-75
2021/05/23 03:25:32;;;;;;;0.23;0.23;;;14.50;99.90;;;;;;20593048;28;20236;-75
2021/05/23 03:35:36;;;;;;;0.20;0.20;;;14.70;99.90;;;;;;20611626;28;20241;-73
2021/05/23 03:45:40;;;;;;;0.30;0.30;;;14.70;99.90;;;;;;20611685;28;20203;-73
2021/05/23 03:55:44;;;;;;;0.40;0.37;;;14.70;99.90;;;;;;20623372;28;20573;-73
2021/05/23 04:05:49;;;;;;;0.57;0.50;;;14.90;99.90;;;;;;20603561;28;20204;-72
2021/05/23 04:15:52;;;;;;;0.27;0.27;;;14.60;99.90;;;;;;20626519;28;20247;-73
2021/05/23 04:25:56;;;;;;;0.20;0.10;;;14.70;99.90;;;;;;20624739;28;20228;-73
2021/05/23 04:35:59;;;;;;;0.27;0.23;;;14.90;99.90;;;;;;20624730;28;20199;-74
2021/05/23 04:46:03;;;;;;;1.13;0.67;;;14.80;99.90;;;;;;20622648;28;20318;-74
2021/05/23 04:56:06;;;;;;;0.20;0.07;;;15.10;99.90;;;;;;20620781;28;20195;-74
2021/05/23 05:06:10;;;;;;;0.53;0.30;;;15.20;99.90;;;;;;20620171;28;20199;-74
2021/05/23 05:16:13;;;;;;;0.20;0.20;;;15.30;99.90;;;;;;20622515;28;20204;-72
2021/05/23 05:26:17;;;;;;;1.60;0.60;;;15.60;99.90;;;;;;20618595;28;20305;-73
2021/05/23 05:36:20;;;;;;;1.17;0.40;;;15.90;99.90;;;;;;20620347;28;20207;-73
2021/05/23 05:46:24;;;;;;;0.20;0.20;;;16.00;99.90;;;;;;20617628;28;20766;-74
2021/05/23 05:56:27;;;;;;;0.43;0.40;;;16.60;99.90;;;;;;20619166;28;20563;-74
2021/05/23 06:06:31;;;;;;;3.30;1.00;;;16.90;99.90;;;;;;20617903;28;20207;-75
2021/05/23 06:16:34;;;;;;;0.47;0.47;;;17.00;99.90;;;;;;20618680;28;20235;-74
2021/05/23 06:26:39;;;;;;;0.47;0.40;;;17.00;99.90;;;;;;20615869;28;20239;-75
2021/05/23 06:36:42;;;;;;;4.20;0.73;;;17.20;99.90;;;;;;20616950;28;20196;-74
2021/05/23 06:46:46;;;;;;;0.73;0.73;;;17.30;99.90;;;;;;20614289;28;20203;-76
2021/05/23 06:56:50;;;;;;;1.07;0.60;;;17.30;99.90;;;;;;20615516;28;20204;-74
2021/05/23 07:06:53;;;;;;;1.17;0.53;;;17.60;99.90;;;;;;20611410;28;20219;-74
2021/05/23 07:16:56;;;;;;;0.37;0.30;;;17.30;99.90;;;;;;20612666;28;20214;-75
2021/05/23 07:27:00;;;;;;;2.73;0.77;;;18.00;99.90;;;;;;20642504;28;20323;-75
2021/05/23 07:37:03;;;;;;;0.37;0.17;;;18.00;99.90;;;;;;20618959;28;20207;-76
2021/05/23 07:47:07;;;;;;;0.30;0.27;;;18.30;99.90;;;;;;20626334;28;20242;-76
2021/05/23 07:57:11;;;;;;;1.07;0.63;;;18.60;99.90;;;;;;20609048;28;20207;-74
2021/05/23 08:07:15;;;;;;;2.67;0.77;;;18.60;99.90;;;;;;20608511;28;20223;-75
2021/05/23 08:17:18;;;;;;;0.30;0.30;;;18.80;99.90;;;;;;20610569;28;20337;-74
2021/05/23 08:27:22;;;;;;;0.30;0.10;;;18.90;99.90;;;;;;20609785;28;20337;-71
2021/05/23 08:37:25;;;;;;;0.20;0.10;;;18.60;99.90;;;;;;20599489;28;20194;-73
2021/05/23 08:47:30;;;;;;;0.30;0.30;;;18.40;99.90;;;;;;20618936;28;20219;-72
2021/05/23 08:57:34;;;;;;;0.20;0.10;;;18.60;99.90;;;;;;20604309;28;20699;-74
2021/05/23 09:07:46;;;;;;;0.77;0.47;;;19.00;99.90;;;;;;20599933;28;20699;-73
2021/05/23 09:18:02;;;;;;;1.03;0.57;;;19.00;99.90;;;;;;20617081;28;20199;-72
2021/05/23 09:28:08;;;;;;;0.20;0.10;;;18.60;99.90;;;;;;20623054;28;20231;-79
2021/05/23 09:38:14;;;;;;;0.20;0.10;;;19.20;99.90;;;;;;20621864;28;20365;-74
2021/05/23 09:48:19;;;;;;;0.53;0.50;;;19.70;99.90;;;;;;20619755;28;20648;-76
2021/05/23 09:58:26;;;;;;;0.20;0.00;;;19.60;99.90;;;;;;20600521;28;21135;-75
2021/05/23 10:08:31;;;;;;;0.20;0.20;;;19.70;99.90;;;;;;20614317;28;20656;-73
2021/05/23 10:18:34;;;;;;;0.77;0.53;;;20.00;99.90;;;;;;20618389;28;20481;-71
2021/05/23 10:28:42;;;;;;;0.20;0.10;;;20.20;99.90;;;;;;20616585;28;20239;-72
2021/05/23 10:38:54;;;;;;;0.60;0.30;;;20.80;99.90;;;;;;20612879;28;20195;-75
2021/05/23 10:49:00;;;;;;;0.20;0.10;;;20.40;99.90;;;;;;20609521;28;20868;-74
2021/05/23 10:59:04;;;;;;;1.60;0.40;;;20.50;99.90;;;;;;20671920;28;20598;-73
2021/05/23 11:09:13;;;;;;;0.23;0.23;;;20.70;99.90;;;;;;20691515;28;20954;-72
2021/05/23 11:19:17;;;;;;;0.30;0.20;;;20.10;99.90;;;;;;20692354;28;20201;-76
2021/05/23 11:29:21;;;;;;;0.60;0.33;;;20.50;99.90;;;;;;20690751;28;20222;-73
2021/05/23 11:39:26;;;;;;;0.23;0.13;;;20.50;99.90;;;;;;20691939;28;20198;-72
2021/05/23 11:49:31;;;;;;;0.23;0.10;;;20.40;99.90;;;;;;20672477;28;20696;-74
2021/05/23 11:59:34;;;;;;;1.90;0.83;;;20.30;99.90;;;;;;20675029;28;20628;-74
2021/05/23 12:09:38;;;;;;;0.20;0.10;;;19.90;99.90;;;;;;20666328;28;20545;-73
2021/05/23 12:19:47;;;;;;;0.73;0.47;;;19.60;99.90;;;;;;20608047;28;20618;-76
2021/05/23 12:29:52;;;;;;;2.90;1.93;;;19.70;99.90;;;;;;20635127;28;20703;-77
2021/05/23 12:39:55;;;;;;;0.20;0.10;;;19.50;99.90;;;;;;20625509;28;20238;-75
2021/05/23 12:49:59;;;;;;;8.67;0.27;;;19.30;99.90;;;;;;20621297;28;20237;-75
2021/05/23 13:00:07;;;;;;;1.60;1.50;;;20.00;99.90;;;;;;20605953;28;20199;-73
2021/05/23 13:10:13;;;;;;;0.50;0.30;;;20.70;99.90;;;;;;20640053;28;20229;-71
2021/05/23 13:20:28;;;;;;;0.93;0.80;;;21.50;99.90;;;;;;20701351;28;20222;-71
2021/05/23 13:30:32;;;;;;;1.50;0.80;;;21.70;99.90;;;;;;20583759;28;20226;-74
2021/05/23 13:40:35;;;;;;;0.73;0.63;;;20.80;99.90;;;;;;20537873;28;20214;-72
2021/05/23 13:50:42;;;;;;;1.27;0.90;;;20.10;99.90;;;;;;20548854;28;20234;-70
2021/05/23 14:00:46;;;;;;;0.93;0.47;;;19.80;99.90;;;;;;20536291;28;20196;-72
2021/05/23 14:10:51;;;;;;;7.23;1.03;;;19.30;99.90;;;;;;20576817;28;20211;-71
2021/05/23 14:20:54;;;;;;;0.20;0.10;;;19.40;99.90;;;;;;20615232;28;20451;-69
2021/05/23 14:30:58;;;;;;;0.20;0.20;;;19.40;99.90;;;;;;20615269;28;20227;-69
2021/05/23 14:41:01;;;;;;;10.80;0.73;;;19.00;99.90;;;;;;20614225;28;20691;-69
2021/05/23 14:51:06;;;;;;;0.33;0.30;;;19.10;99.90;;;;;;20595226;28;20215;-70
2021/05/23 15:01:09;;;;;;;0.20;0.10;;;18.60;99.90;;;;;;20613819;28;20551;-73
2021/05/23 15:11:13;;;;;;;0.23;0.10;;;18.50;99.90;;;;;;20656376;28;20229;-72
2021/05/23 15:21:16;;;;;;;0.73;0.30;;;18.70;99.90;;;;;;20673935;28;20226;-71
2021/05/23 15:31:22;;;;;;;2.30;0.43;;;18.90;99.90;;;;;;20691344;28;20519;-71
2021/05/23 15:41:25;;;;;;;0.20;0.20;;;18.60;99.90;;;;;;20693483;28;20198;-66
2021/05/23 15:51:31;;;;;;;0.20;0.10;;;18.20;99.90;;;;;;20706868;28;20218;-69
2021/05/23 16:01:35;;;;;;;0.20;0.10;;;18.10;99.90;;;;;;20689613;28;20441;-70
2021/05/23 16:11:39;;;;;;;0.20;0.10;;;17.90;99.90;;;;;;20655975;28;20219;-69
2021/05/23 16:21:43;;;;;;;6.13;0.73;;;18.00;99.90;;;;;;20627614;28;21009;-69
2021/05/23 16:31:48;;;;;;;0.20;0.17;;;18.10;99.90;;;;;;20625342;28;20259;-69
2021/05/23 16:41:51;;;;;;;0.70;0.67;;;17.90;99.90;;;;;;20624509;28;20282;-70
2021/05/23 16:51:55;;;;;;;2.03;1.40;;;17.90;99.90;;;;;;20696901;28;20233;-69
2021/05/23 17:01:58;;;;;;;0.40;0.10;;;17.60;99.90;;;;;;20703285;28;20533;-71
2021/05/23 17:12:03;;;;;;;0.20;0.07;;;17.50;99.90;;;;;;20702028;28;20733;-70
2021/05/23 17:22:06;;;;;;;0.83;0.83;;;17.50;99.90;;;;;;20712567;28;20231;-72
2021/05/23 17:32:10;;;;;;;2.27;0.90;;;17.40;99.90;;;;;;20707744;28;20313;-71
2021/05/23 17:42:13;;;;;;;0.60;0.60;;;17.30;99.90;;;;;;20695180;28;20203;-71
2021/05/23 17:52:17;;;;;;;0.23;0.23;;;17.10;99.90;;;;;;20619975;28;20634;-71
2021/05/23 18:02:20;;;;;;;0.20;0.10;;;17.10;99.90;;;;;;20619397;28;20211;-72
2021/05/23 18:12:24;;;;;;;0.20;0.10;;;17.00;99.90;;;;;;20615311;28;20474;-72
2021/05/23 18:22:27;;;;;;;0.20;0.20;;;17.10;99.90;;;;;;20614978;28;20343;-73
2021/05/23 18:32:32;;;;;;;0.33;0.33;;;16.80;99.90;;;;;;20612867;28;20759;-71
2021/05/23 18:42:38;;;;;;;4.13;0.43;;;16.60;99.90;;;;;;20596300;28;20681;-73
2021/05/23 18:52:42;;;;;;;0.63;0.53;;;16.40;99.90;;;;;;20611084;28;20744;-71
2021/05/23 19:02:45;;;;;;;0.20;0.20;;;16.40;99.90;;;;;;20611544;28;20200;-71
2021/05/23 19:12:50;;;;;;;0.30;0.20;;;16.40;99.90;;;;;;20609166;28;20238;-71
2021/05/23 19:22:58;;;;;;;0.20;0.10;;;16.40;99.90;;;;;;20610246;28;20238;-71
2021/05/23 19:33:03;;;;;;;0.77;0.53;;;16.50;99.90;;;;;;20610724;28;20246;-71
2021/05/23 19:43:07;;;;;;;0.50;0.47;;;16.30;99.90;;;;;;20610376;28;20203;-73
2021/05/23 19:53:11;;;;;;;0.20;0.10;;;16.40;99.90;;;;;;20596070;28;20405;-70
2021/05/23 20:03:14;;;;;;;0.47;0.47;;;16.30;99.90;;;;;;20617259;28;20262;-71
2021/05/23 20:13:18;;;;;;;0.30;0.30;;;16.40;99.90;;;;;;20670321;28;20306;-71
2021/05/23 20:23:21;;;;;;;0.20;0.10;;;16.20;99.90;;;;;;20688663;28;20270;-73
2021/05/23 20:33:25;;;;;;;0.20;0.10;;;16.30;99.90;;;;;;20702750;28;20755;-72
2021/05/23 20:43:28;;;;;;;3.03;0.53;;;16.30;99.90;;;;;;20704476;28;20532;-75
2021/05/23 20:53:32;;;;;;;0.57;0.37;;;16.30;99.90;;;;;;20704008;28;20557;-72
2021/05/23 21:03:35;;;;;;;0.20;0.10;;;16.20;99.90;;;;;;20697256;28;20227;-71
2021/05/23 21:13:39;;;;;;;0.40;0.40;;;16.10;99.90;;;;;;20637498;28;20687;-71
2021/05/23 21:23:43;;;;;;;0.20;0.10;;;16.30;99.90;;;;;;20619095;28;20228;-71
2021/05/23 21:33:46;;;;;;;0.43;0.13;;;16.20;99.90;;;;;;20619503;28;20231;-70
2021/05/23 21:43:50;;;;;;;0.20;0.10;;;16.50;99.90;;;;;;20617071;28;20213;-71
2021/05/23 21:53:54;;;;;;;0.93;0.87;;;16.40;99.90;;;;;;20617271;28;20543;-70
2021/05/23 22:03:57;;;;;;;0.50;0.27;;;16.30;99.90;;;;;;20615225;28;20200;-70
2021/05/23 22:14:01;;;;;;;0.33;0.17;;;16.30;99.90;;;;;;20665945;28;20723;-71
2021/05/23 22:24:05;;;;;;;0.57;0.30;;;16.50;99.90;;;;;;20701382;28;20250;-68
2021/05/23 22:34:09;;;;;;;0.20;0.20;;;16.50;99.90;;;;;;20697842;28;21087;-69
2021/05/23 22:44:13;;;;;;;10.70;0.30;;;16.40;99.90;;;;;;20695216;28;20197;-73
2021/05/23 22:54:17;;;;;;;0.20;0.10;;;16.30;99.90;;;;;;20695171;28;20809;-70
2021/05/23 23:04:21;;;;;;;0.20;0.10;;;16.40;99.90;;;;;;20675229;28;20201;-69
2021/05/23 23:14:25;;;;;;;0.20;0.00;;;16.20;99.90;;;;;;20622323;28;20223;-69
2021/05/23 23:24:29;;;;;;;0.40;0.30;;;16.20;99.90;;;;;;20609617;28;20231;-71
2021/05/23 23:34:34;;;;;;;0.77;0.50;;;16.30;99.90;;;;;;20612274;28;20231;-70
2021/05/23 23:44:37;;;;;;;0.20;0.10;;;16.10;99.90;;;;;;20610275;28;20196;-68
2021/05/23 23:54:40;;;;;;;0.20;0.20;;;16.10;99.90;;;;;;20610793;28;20238;-69
